Time;durP1;ratioP1;P1;durP2;ratioP2;P2;SDS_P1;SDS_P2;PMS_P1;PMS_P2;Temp;Humidity;BMP_temperature;BMP_pressure;BME280_temperature;BME280_humidity;BME280_pressure;Samples;Min_cycle;Max_cycle;Signal;HPM_P1;HPM_P2
2023/08/26 00:01:59;;;;;;;1999.90;999.90;;;19.30;99.90;;;;;;5031744;28;20258;-70
2023/08/26 00:04:24;;;;;;;1999.90;999.90;;;19.20;99.90;;;;;;5031995;28;20251;-72
2023/08/26 00:06:50;;;;;;;1999.90;999.90;;;19.20;99.90;;;;;;5032087;28;20173;-70
2023/08/26 00:09:16;;;;;;;1999.90;999.90;;;19.10;99.90;;;;;;5032005;28;20663;-70
2023/08/26 00:11:42;;;;;;;1999.90;999.90;;;19.10;99.90;;;;;;5031605;28;20721;-72
2023/08/26 00:14:07;;;;;;;1999.90;999.90;;;19.00;99.90;;;;;;5031958;28;20187;-71
2023/08/26 00:16:33;;;;;;;1999.90;999.90;;;18.90;99.90;;;;;;5031881;28;21006;-69
2023/08/26 00:18:59;;;;;;;1999.90;999.90;;;18.90;99.90;;;;;;5031858;28;20184;-69
2023/08/26 00:21:28;;;;;;;1999.90;999.90;;;18.90;99.90;;;;;;5031562;28;20175;-71
2023/08/26 00:23:55;;;;;;;1999.90;999.90;;;18.80;99.90;;;;;;5031934;28;20178;-71
2023/08/26 00:26:21;;;;;;;1999.90;999.90;;;18.80;99.90;;;;;;5031932;28;20411;-70
2023/08/26 00:28:46;;;;;;;1999.90;999.90;;;18.70;99.90;;;;;;5031868;28;20964;-70
2023/08/26 00:31:12;;;;;;;1999.90;999.90;;;18.70;99.90;;;;;;5031359;28;20462;-71
2023/08/26 00:33:37;;;;;;;1999.90;999.90;;;18.60;99.90;;;;;;5031810;28;20533;-70
2023/08/26 00:36:03;;;;;;;1999.90;999.90;;;18.50;99.90;;;;;;5031751;28;20175;-69
2023/08/26 00:38:29;;;;;;;1999.90;999.90;;;18.50;99.90;;;;;;5031656;28;20197;-71
2023/08/26 00:40:55;;;;;;;1999.90;999.90;;;18.40;99.90;;;;;;5030243;28;20186;-70
2023/08/26 00:43:21;;;;;;;1999.90;999.90;;;18.30;99.90;;;;;;5031672;28;20575;-70
2023/08/26 00:45:49;;;;;;;1999.90;999.90;;;18.20;99.90;;;;;;5031649;28;20408;-71
2023/08/26 00:48:15;;;;;;;1999.90;999.90;;;18.10;99.90;;;;;;5031568;28;20270;-71
2023/08/26 00:50:47;;;;;;;1999.90;999.90;;;18.10;99.90;;;;;;5031501;28;20872;-69
2023/08/26 00:53:14;;;;;;;1999.90;999.90;;;18.00;99.90;;;;;;5031481;28;20450;-71
2023/08/26 00:55:41;;;;;;;1999.90;999.90;;;17.90;99.90;;;;;;5031877;28;20414;-71
2023/08/26 00:58:07;;;;;;;1999.90;999.90;;;17.80;99.90;;;;;;5031629;28;20807;-70
2023/08/26 01:00:37;;;;;;;1999.90;999.90;;;17.70;99.90;;;;;;5031580;28;20407;-69
2023/08/26 01:03:03;;;;;;;1999.90;999.90;;;17.60;99.90;;;;;;5032601;28;20423;-70
2023/08/26 01:05:29;;;;;;;1999.90;999.90;;;17.60;99.90;;;;;;5035269;28;20399;-71
2023/08/26 01:07:56;;;;;;;1999.90;999.90;;;17.50;99.90;;;;;;5035180;28;20931;-70
2023/08/26 01:11:00;;;;;;;1999.90;999.90;;;17.40;99.90;;;;;;5035026;28;20412;-70
2023/08/26 01:13:41;;;;;;;1999.90;999.90;;;17.40;99.90;;;;;;5012038;28;20429;-70
2023/08/26 01:16:08;;;;;;;1999.90;999.90;;;17.40;99.90;;;;;;5035106;28;20454;-71
2023/08/26 01:18:34;;;;;;;1999.90;999.90;;;17.30;99.90;;;;;;5034959;28;20435;-71
2023/08/26 01:21:00;;;;;;;1999.90;999.90;;;17.20;99.90;;;;;;5034637;28;20958;-71
2023/08/26 01:23:41;;;;;;;1999.90;999.90;;;17.10;99.90;;;;;;5034876;28;20790;-70
2023/08/26 01:26:07;;;;;;;1999.90;999.90;;;17.10;99.90;;;;;;5035063;28;20918;-70
2023/08/26 01:28:33;;;;;;;1999.90;999.90;;;17.00;99.90;;;;;;5034820;28;20459;-69
2023/08/26 01:31:13;;;;;;;1999.90;999.90;;;17.00;99.90;;;;;;5034685;28;20458;-70
2023/08/26 01:33:45;;;;;;;1999.90;999.90;;;16.90;99.90;;;;;;5034763;28;20216;-71
2023/08/26 01:36:17;;;;;;;1999.90;999.90;;;16.80;99.90;;;;;;5034803;28;20957;-70
2023/08/26 01:38:42;;;;;;;1999.90;999.90;;;16.70;99.90;;;;;;5034811;28;20445;-71
2023/08/26 01:41:11;;;;;;;1999.90;999.90;;;16.60;99.90;;;;;;5034752;28;20442;-69
2023/08/26 01:43:37;;;;;;;1999.90;999.90;;;16.60;99.90;;;;;;5034660;28;20262;-70
2023/08/26 01:46:02;;;;;;;1999.90;999.90;;;16.60;99.90;;;;;;5034688;28;21167;-71
2023/08/26 01:48:28;;;;;;;1999.90;999.90;;;16.50;99.90;;;;;;5034595;28;20434;-70
2023/08/26 01:50:53;;;;;;;1999.90;999.90;;;16.40;99.90;;;;;;5034093;28;20229;-71
2023/08/26 01:53:19;;;;;;;1999.90;999.90;;;16.40;99.90;;;;;;5034325;28;20172;-70
2023/08/26 01:55:44;;;;;;;1999.90;999.90;;;16.40;99.90;;;;;;5034490;28;20701;-70
2023/08/26 01:58:10;;;;;;;1999.90;999.90;;;16.20;99.90;;;;;;5034446;28;20210;-71
2023/08/26 02:00:35;;;;;;;1999.90;999.90;;;16.20;99.90;;;;;;5034097;28;20204;-71
2023/08/26 02:03:01;;;;;;;1999.90;999.90;;;16.20;99.90;;;;;;5034215;28;20177;-70
2023/08/26 02:05:27;;;;;;;1999.90;999.90;;;16.10;99.90;;;;;;5034114;28;20174;-69
2023/08/26 02:07:52;;;;;;;1999.90;999.90;;;16.10;99.90;;;;;;5034124;28;20196;-70
2023/08/26 02:10:18;;;;;;;1999.90;999.90;;;16.00;99.90;;;;;;5034040;28;20516;-69
2023/08/26 02:12:43;;;;;;;1999.90;999.90;;;15.90;99.90;;;;;;5034324;28;20196;-71
2023/08/26 02:15:09;;;;;;;1999.90;999.90;;;15.90;99.90;;;;;;5033847;28;20170;-69
2023/08/26 02:17:35;;;;;;;1999.90;999.90;;;15.90;99.90;;;;;;5034076;28;20222;-69
2023/08/26 02:20:00;;;;;;;1999.90;999.90;;;15.80;99.90;;;;;;5033961;28;20617;-70
2023/08/26 02:22:26;;;;;;;1999.90;999.90;;;15.80;99.90;;;;;;5033112;28;20175;-70
2023/08/26 02:24:52;;;;;;;1999.90;999.90;;;15.80;99.90;;;;;;5033929;28;20567;-69
2023/08/26 02:27:17;;;;;;;1999.90;999.90;;;15.70;99.90;;;;;;5033717;28;20177;-71
2023/08/26 02:29:43;;;;;;;1999.90;999.90;;;15.70;99.90;;;;;;5033649;28;20187;-70
2023/08/26 02:32:08;;;;;;;1999.90;999.90;;;15.60;99.90;;;;;;5033455;28;20560;-69
2023/08/26 02:34:34;;;;;;;1999.90;999.90;;;15.60;99.90;;;;;;5033777;28;20206;-70
2023/08/26 02:36:59;;;;;;;1999.90;999.90;;;15.60;99.90;;;;;;5033898;28;20172;-71
2023/08/26 02:39:25;;;;;;;1999.90;999.90;;;15.60;99.90;;;;;;5032112;28;20198;-69
2023/08/26 02:41:51;;;;;;;1999.90;999.90;;;15.50;99.90;;;;;;5033142;28;20266;-70
2023/08/26 02:44:16;;;;;;;1999.90;999.90;;;15.50;99.90;;;;;;5033327;28;20200;-70
2023/08/26 02:46:42;;;;;;;1999.90;999.90;;;15.40;99.90;;;;;;5033260;28;20168;-70
2023/08/26 02:49:07;;;;;;;1999.90;999.90;;;15.40;99.90;;;;;;5031912;28;20587;-69
2023/08/26 02:51:33;;;;;;;1999.90;999.90;;;15.40;99.90;;;;;;5032822;28;20203;-70
2023/08/26 02:53:58;;;;;;;1999.90;999.90;;;15.40;99.90;;;;;;5033266;28;20174;-71
2023/08/26 02:56:24;;;;;;;1999.90;999.90;;;15.50;99.90;;;;;;5033145;28;20169;-71
2023/08/26 02:58:50;;;;;;;1999.90;999.90;;;15.40;99.90;;;;;;5033240;28;20292;-70
2023/08/26 03:01:19;;;;;;;1999.90;999.90;;;15.40;99.90;;;;;;5033220;28;20471;-71
2023/08/26 03:03:44;;;;;;;1999.90;999.90;;;15.40;99.90;;;;;;5033122;28;20258;-70
2023/08/26 03:06:11;;;;;;;1999.90;999.90;;;15.50;99.90;;;;;;5032991;28;20509;-68
2023/08/26 03:08:37;;;;;;;1999.90;999.90;;;15.50;99.90;;;;;;5033113;28;20195;-71
2023/08/26 03:11:04;;;;;;;1999.90;999.90;;;15.50;99.90;;;;;;5033110;28;20537;-71
2023/08/26 03:13:30;;;;;;;1999.90;999.90;;;15.60;99.90;;;;;;5033406;28;20177;-71
2023/08/26 03:15:57;;;;;;;1999.90;999.90;;;15.50;99.90;;;;;;5033073;28;20410;-69
2023/08/26 03:18:23;;;;;;;1999.90;999.90;;;15.50;99.90;;;;;;5032750;28;20426;-71
2023/08/26 03:20:48;;;;;;;1999.90;999.90;;;15.50;99.90;;;;;;5032772;28;20410;-70
2023/08/26 03:23:14;;;;;;;1999.90;999.90;;;15.50;99.90;;;;;;5032511;28;20414;-70
2023/08/26 03:25:40;;;;;;;1999.90;999.90;;;15.50;99.90;;;;;;5032145;28;20182;-69
2023/08/26 03:28:08;;;;;;;1999.90;999.90;;;15.70;99.90;;;;;;5047396;22;20201;-73
2023/08/26 03:30:37;;;;;;;1999.90;999.90;;;15.50;99.90;;;;;;5032341;28;20403;-74
2023/08/26 03:33:03;;;;;;;1999.90;999.90;;;15.50;99.90;;;;;;5032249;28;20413;-74
2023/08/26 03:35:28;;;;;;;1999.90;999.90;;;15.50;99.90;;;;;;5032510;28;20483;-74
2023/08/26 03:37:54;;;;;;;1999.90;999.90;;;15.60;99.90;;;;;;5032250;28;20510;-74
2023/08/26 03:40:22;;;;;;;1999.90;999.90;;;15.60;99.90;;;;;;5032337;28;20169;-74
2023/08/26 03:42:51;;;;;;;1999.90;999.90;;;15.60;99.90;;;;;;5032032;28;20193;-74
2023/08/26 03:45:17;;;;;;;1999.90;999.90;;;15.60;99.90;;;;;;5032493;28;20405;-74
2023/08/26 03:47:43;;;;;;;1999.90;999.90;;;15.60;99.90;;;;;;5032204;28;20413;-74
2023/08/26 03:50:09;;;;;;;1999.90;999.90;;;15.60;99.90;;;;;;5032158;28;20201;-74
2023/08/26 03:52:34;;;;;;;1999.90;999.90;;;15.60;99.90;;;;;;5031857;28;20296;-74
2023/08/26 03:55:00;;;;;;;1999.90;999.90;;;15.60;99.90;;;;;;5031984;28;20870;-74
2023/08/26 03:57:25;;;;;;;1999.90;999.90;;;15.60;99.90;;;;;;5032239;28;20255;-74
2023/08/26 03:59:51;;;;;;;1999.90;999.90;;;15.60;99.90;;;;;;5031933;28;20293;-75
2023/08/26 04:02:17;;;;;;;1999.90;999.90;;;15.50;99.90;;;;;;5032069;28;20198;-73
2023/08/26 04:04:42;;;;;;;1999.90;999.90;;;15.50;99.90;;;;;;5032039;28;20173;-74
2023/08/26 04:07:08;;;;;;;1999.90;999.90;;;15.50;99.90;;;;;;5032116;28;20173;-75
2023/08/26 04:09:33;;;;;;;1999.90;999.90;;;15.40;99.90;;;;;;5031794;28;20202;-74
2023/08/26 04:11:59;;;;;;;1999.90;999.90;;;15.50;99.90;;;;;;5031559;28;20202;-74
2023/08/26 04:14:25;;;;;;;1999.90;999.90;;;15.50;99.90;;;;;;5031957;28;20168;-74
2023/08/26 04:16:50;;;;;;;1999.90;999.90;;;15.40;99.90;;;;;;5031912;28;20624;-76
2023/08/26 04:19:16;;;;;;;1999.90;999.90;;;15.40;99.90;;;;;;5031831;28;20195;-74
2023/08/26 04:21:42;;;;;;;1999.90;999.90;;;15.40;99.90;;;;;;5031560;28;20178;-75
2023/08/26 04:24:07;;;;;;;1999.90;999.90;;;15.40;99.90;;;;;;5031842;28;20174;-74
2023/08/26 04:26:33;;;;;;;1999.90;999.90;;;15.40;99.90;;;;;;5032068;28;20182;-74
2023/08/26 04:28:58;;;;;;;1999.90;999.90;;;15.40;99.90;;;;;;5031592;28;20281;-74
2023/08/26 04:31:24;;;;;;;1999.90;999.90;;;15.40;99.90;;;;;;5031455;28;20199;-75
2023/08/26 04:33:51;;;;;;;1999.90;999.90;;;15.40;99.90;;;;;;5031884;28;20179;-74
2023/08/26 04:36:17;;;;;;;1999.90;999.90;;;15.40;99.90;;;;;;5031768;28;20195;-74
2023/08/26 04:38:43;;;;;;;1999.90;999.90;;;15.40;99.90;;;;;;5034225;28;20429;-75
2023/08/26 04:41:09;;;;;;;1999.90;999.90;;;15.30;99.90;;;;;;5035408;28;20178;-75
2023/08/26 04:43:35;;;;;;;1999.90;999.90;;;15.30;99.90;;;;;;5035609;28;20169;-74
2023/08/26 04:46:01;;;;;;;1999.90;999.90;;;15.30;99.90;;;;;;5035676;28;20424;-74
2023/08/26 04:48:28;;;;;;;1999.90;999.90;;;15.30;99.90;;;;;;5035480;28;20926;-74
2023/08/26 04:50:54;;;;;;;1999.90;999.90;;;15.30;99.90;;;;;;5035215;28;20287;-75
2023/08/26 04:53:20;;;;;;;1999.90;999.90;;;15.30;99.90;;;;;;5035350;28;20399;-73
2023/08/26 04:55:49;;;;;;;1999.90;999.90;;;15.30;99.90;;;;;;5035194;28;20501;-75
2023/08/26 04:58:15;;;;;;;1999.90;999.90;;;15.30;99.90;;;;;;5035415;28;20218;-74
2023/08/26 05:00:41;;;;;;;1999.90;999.90;;;15.30;99.90;;;;;;5035294;28;20485;-74
2023/08/26 05:03:07;;;;;;;1999.90;999.90;;;15.20;99.90;;;;;;5035069;28;20189;-74
2023/08/26 05:05:32;;;;;;;1999.90;999.90;;;15.30;99.90;;;;;;5035187;28;20410;-74
2023/08/26 05:07:58;;;;;;;1999.90;999.90;;;15.40;99.90;;;;;;5035122;28;20158;-75
2023/08/26 05:10:23;;;;;;;1999.90;999.90;;;15.30;99.90;;;;;;5035220;28;20575;-74
2023/08/26 05:12:49;;;;;;;1999.90;999.90;;;15.40;99.90;;;;;;5034727;28;20243;-74
2023/08/26 05:15:14;;;;;;;1999.90;999.90;;;15.60;99.90;;;;;;5035200;28;20175;-74
2023/08/26 05:17:40;;;;;;;1999.90;999.90;;;15.60;99.90;;;;;;5035186;28;20253;-76
2023/08/26 05:20:07;;;;;;;1999.90;999.90;;;15.60;99.90;;;;;;5034992;28;20279;-76
2023/08/26 05:22:32;;;;;;;1999.90;999.90;;;15.70;99.90;;;;;;5034753;28;20436;-76
2023/08/26 05:24:58;;;;;;;1999.90;999.90;;;15.70;99.90;;;;;;5035017;28;20507;-76
2023/08/26 05:27:23;;;;;;;1999.90;999.90;;;15.80;99.90;;;;;;5034985;28;20188;-76
2023/08/26 05:29:49;;;;;;;1999.90;999.90;;;15.90;99.90;;;;;;5034921;28;20251;-75
2023/08/26 05:32:15;;;;;;;1999.90;999.90;;;15.90;99.90;;;;;;5034682;28;20206;-75
2023/08/26 05:34:40;;;;;;;1999.90;999.90;;;15.90;99.90;;;;;;5034881;28;20289;-76
2023/08/26 05:37:06;;;;;;;1999.90;999.90;;;15.90;99.90;;;;;;5034894;28;20171;-76
2023/08/26 05:39:32;;;;;;;1999.90;999.90;;;15.90;99.90;;;;;;5034739;28;20618;-76
2023/08/26 05:41:57;;;;;;;1999.90;999.90;;;15.80;99.90;;;;;;5034278;28;20179;-75
2023/08/26 05:44:23;;;;;;;1999.90;999.90;;;15.70;99.90;;;;;;5034947;28;20175;-76
2023/08/26 05:46:48;;;;;;;1999.90;999.90;;;15.70;99.90;;;;;;5034534;28;20212;-76
2023/08/26 05:49:14;;;;;;;1999.90;999.90;;;15.70;99.90;;;;;;5033832;28;20200;-76
2023/08/26 05:51:39;;;;;;;1999.90;999.90;;;15.60;99.90;;;;;;5034078;28;20553;-75
2023/08/26 05:54:05;;;;;;;1999.90;999.90;;;15.70;99.90;;;;;;5034492;28;20175;-76
2023/08/26 05:56:31;;;;;;;1999.90;999.90;;;15.70;99.90;;;;;;5034763;28;20180;-76
2023/08/26 05:58:57;;;;;;;1999.90;999.90;;;15.70;99.90;;;;;;5034404;28;20450;-76
2023/08/26 06:01:22;;;;;;;1999.90;999.90;;;15.60;99.90;;;;;;5034169;28;20421;-76
2023/08/26 06:03:48;;;;;;;1999.90;999.90;;;15.70;99.90;;;;;;5034291;28;20583;-75
2023/08/26 06:06:14;;;;;;;1999.90;999.90;;;15.70;99.90;;;;;;5034250;28;20179;-76
2023/08/26 06:08:39;;;;;;;1999.90;999.90;;;15.80;99.90;;;;;;5033987;28;20198;-76
2023/08/26 06:11:05;;;;;;;1999.90;999.90;;;15.70;99.90;;;;;;5033708;28;20601;-75
2023/08/26 06:13:30;;;;;;;1999.90;999.90;;;15.90;99.90;;;;;;5034095;28;20164;-75
2023/08/26 06:15:56;;;;;;;1999.90;999.90;;;15.80;99.90;;;;;;5034065;28;20168;-75
2023/08/26 06:18:23;;;;;;;1999.90;999.90;;;15.90;99.90;;;;;;5033954;28;20205;-75
2023/08/26 06:20:50;;;;;;;1999.90;999.90;;;15.90;99.90;;;;;;5033625;28;20411;-75
2023/08/26 06:23:15;;;;;;;1999.90;999.90;;;15.90;99.90;;;;;;5033000;28;20430;-76
2023/08/26 06:25:54;;;;;;;1999.90;999.90;;;15.90;99.90;;;;;;5033689;28;20443;-74
2023/08/26 06:28:20;;;;;;;1999.90;999.90;;;16.00;99.90;;;;;;5033557;28;20257;-75
2023/08/26 06:30:46;;;;;;;1999.90;999.90;;;16.00;99.90;;;;;;5033502;28;20413;-75
2023/08/26 06:33:12;;;;;;;1999.90;999.90;;;16.00;99.90;;;;;;5033337;28;20405;-75
2023/08/26 06:35:37;;;;;;;1999.90;999.90;;;16.10;99.90;;;;;;5033517;28;20462;-75
2023/08/26 06:38:03;;;;;;;1999.90;999.90;;;16.00;99.90;;;;;;5033470;28;20742;-74
2023/08/26 06:40:31;;;;;;;1999.90;999.90;;;16.00;99.90;;;;;;5033100;28;20649;-75
2023/08/26 06:42:57;;;;;;;1999.90;999.90;;;16.00;99.90;;;;;;5032959;28;20185;-74
2023/08/26 06:45:23;;;;;;;1999.90;999.90;;;16.10;99.90;;;;;;5033321;28;20434;-75
2023/08/26 06:47:49;;;;;;;1999.90;999.90;;;16.20;99.90;;;;;;5033181;28;20400;-74
2023/08/26 06:50:15;;;;;;;1999.90;999.90;;;16.30;99.90;;;;;;5033325;28;20461;-76
2023/08/26 06:52:40;;;;;;;1999.90;999.90;;;16.30;99.90;;;;;;5033412;28;20203;-75
2023/08/26 06:55:08;;;;;;;1999.90;999.90;;;16.40;99.90;;;;;;5033547;28;20635;-75
2023/08/26 06:57:35;;;;;;;1999.90;999.90;;;16.40;99.90;;;;;;5033636;28;20649;-75
2023/08/26 07:00:05;;;;;;;1999.90;999.90;;;16.40;99.90;;;;;;5032170;28;20426;-74
2023/08/26 07:02:31;;;;;;;1999.90;999.90;;;16.50;99.90;;;;;;5032530;28;20453;-74
2023/08/26 07:04:56;;;;;;;1999.90;999.90;;;16.60;99.90;;;;;;5032950;28;20435;-74
2023/08/26 07:07:22;;;;;;;1999.90;999.90;;;16.60;99.90;;;;;;5032876;28;20202;-74
2023/08/26 07:09:48;;;;;;;1999.90;999.90;;;16.70;99.90;;;;;;5032708;28;20280;-74
2023/08/26 07:12:14;;;;;;;1999.90;999.90;;;16.70;99.90;;;;;;5032515;28;20204;-75
2023/08/26 07:14:40;;;;;;;1999.90;999.90;;;16.80;99.90;;;;;;5032846;28;20174;-73
2023/08/26 07:17:06;;;;;;;1999.90;999.90;;;16.90;99.90;;;;;;5032804;28;20404;-74
2023/08/26 07:19:32;;;;;;;1999.90;999.90;;;16.90;99.90;;;;;;5032614;28;20434;-74
2023/08/26 07:21:58;;;;;;;1999.90;999.90;;;17.00;99.90;;;;;;5032333;28;20415;-75
2023/08/26 07:24:23;;;;;;;1999.90;999.90;;;17.10;99.90;;;;;;5032640;28;20182;-74
2023/08/26 07:26:49;;;;;;;1999.90;999.90;;;17.10;99.90;;;;;;5032632;28;20653;-74
2023/08/26 07:29:15;;;;;;;1999.90;999.90;;;17.10;99.90;;;;;;5032354;28;20210;-75
2023/08/26 07:31:41;;;;;;;1999.90;999.90;;;17.20;99.90;;;;;;5032096;28;20203;-74
2023/08/26 07:34:08;;;;;;;1999.90;999.90;;;17.20;99.90;;;;;;5032418;28;20200;-74
2023/08/26 07:36:33;;;;;;;1999.90;999.90;;;17.30;99.90;;;;;;5032471;28;20435;-74
2023/08/26 07:38:59;;;;;;;1999.90;999.90;;;17.40;99.90;;;;;;5032304;28;20898;-74
2023/08/26 07:41:25;;;;;;;1999.90;999.90;;;17.50;99.90;;;;;;5032151;28;20175;-74
2023/08/26 07:43:51;;;;;;;1999.90;999.90;;;17.50;99.90;;;;;;5031781;28;20446;-74
2023/08/26 07:46:18;;;;;;;1999.90;999.90;;;17.50;99.90;;;;;;5032254;28;20187;-74
2023/08/26 07:48:44;;;;;;;1999.90;999.90;;;17.60;99.90;;;;;;5032215;28;20527;-74
2023/08/26 07:51:10;;;;;;;1999.90;999.90;;;17.70;99.90;;;;;;5031892;28;20905;-74
2023/08/26 07:53:36;;;;;;;1999.90;999.90;;;17.70;99.90;;;;;;5032240;28;20402;-74
2023/08/26 07:56:01;;;;;;;1999.90;999.90;;;17.80;99.90;;;;;;5032092;28;20183;-74
2023/08/26 07:58:27;;;;;;;1999.90;999.90;;;17.90;99.90;;;;;;5031193;28;20277;-75
2023/08/26 08:00:52;;;;;;;1999.90;999.90;;;17.90;99.90;;;;;;5031827;28;20172;-74
2023/08/26 08:03:18;;;;;;;1999.90;999.90;;;17.90;99.90;;;;;;5032039;28;20178;-74
2023/08/26 08:05:45;;;;;;;1999.90;999.90;;;18.00;99.90;;;;;;5032067;28;20729;-74
2023/08/26 08:08:10;;;;;;;1999.90;999.90;;;18.00;99.90;;;;;;5031887;28;20432;-74
2023/08/26 08:10:36;;;;;;;1999.90;999.90;;;18.00;99.90;;;;;;5031898;28;20187;-74
2023/08/26 08:13:02;;;;;;;1999.90;999.90;;;18.10;99.90;;;;;;5028440;28;20207;-74
2023/08/26 08:15:27;;;;;;;1999.90;999.90;;;18.00;99.90;;;;;;5020403;28;20184;-74
2023/08/26 08:17:54;;;;;;;1999.90;999.90;;;18.10;99.90;;;;;;5038738;28;20211;-73
2023/08/26 08:20:19;;;;;;;1999.90;999.90;;;18.20;99.90;;;;;;5026490;28;20209;-74
2023/08/26 08:22:45;;;;;;;1999.90;999.90;;;18.20;99.90;;;;;;5026452;28;20444;-75
2023/08/26 08:25:11;;;;;;;1999.90;999.90;;;18.30;99.90;;;;;;5027704;28;20897;-73
2023/08/26 08:27:38;;;;;;;1999.90;999.90;;;18.40;99.90;;;;;;5026759;28;20597;-74
2023/08/26 08:30:05;;;;;;;1999.90;999.90;;;18.50;99.90;;;;;;5026454;28;20203;-75
2023/08/26 08:32:31;;;;;;;1999.90;999.90;;;18.50;99.90;;;;;;5026605;28;20459;-73
2023/08/26 08:34:57;;;;;;;1999.90;999.90;;;18.60;99.90;;;;;;5027016;28;20471;-73
2023/08/26 08:37:23;;;;;;;1999.90;999.90;;;18.60;99.90;;;;;;5027967;28;20490;-74
2023/08/26 08:39:48;;;;;;;1999.90;999.90;;;18.70;99.90;;;;;;5027224;28;20923;-73
2023/08/26 08:42:15;;;;;;;1999.90;999.90;;;18.70;99.90;;;;;;5026216;28;20189;-73
2023/08/26 08:44:42;;;;;;;1999.90;999.90;;;18.80;99.90;;;;;;5027394;28;20191;-73
2023/08/26 08:47:09;;;;;;;1999.90;999.90;;;18.80;99.90;;;;;;5007429;28;20414;-73
2023/08/26 08:49:36;;;;;;;1999.90;999.90;;;18.90;99.90;;;;;;5021458;28;20440;-76
2023/08/26 08:52:03;;;;;;;1999.90;999.90;;;18.90;99.90;;;;;;5027188;28;20457;-77
2023/08/26 08:54:29;;;;;;;1999.90;999.90;;;19.00;99.90;;;;;;5028102;28;20415;-76
2023/08/26 08:56:56;;;;;;;1999.90;999.90;;;19.00;99.90;;;;;;5027670;28;20430;-76
2023/08/26 08:59:24;;;;;;;1999.90;999.90;;;19.10;99.90;;;;;;5027751;28;20453;-74
2023/08/26 09:01:54;;;;;;;1999.90;999.90;;;19.10;99.90;;;;;;5028013;28;20468;-76
2023/08/26 09:04:21;;;;;;;1999.90;999.90;;;19.20;99.90;;;;;;5028006;28;20517;-76
2023/08/26 09:06:47;;;;;;;1999.90;999.90;;;19.20;99.90;;;;;;5024402;28;20437;-77
2023/08/26 09:09:15;;;;;;;1999.90;999.90;;;19.20;99.90;;;;;;5025489;28;20473;-75
2023/08/26 09:11:40;;;;;;;1999.90;999.90;;;19.30;99.90;;;;;;5026604;28;20452;-77
2023/08/26 09:14:07;;;;;;;1999.90;999.90;;;19.40;99.90;;;;;;5026498;28;20434;-76
2023/08/26 09:16:38;;;;;;;1999.90;999.90;;;19.40;99.90;;;;;;5025416;28;20175;-76
2023/08/26 09:19:08;;;;;;;1999.90;999.90;;;19.40;99.90;;;;;;5022825;28;20528;-76
2023/08/26 09:21:34;;;;;;;1999.90;999.90;;;19.30;99.90;;;;;;5019829;28;20481;-77
2023/08/26 09:24:13;;;;;;;1999.90;999.90;;;19.50;99.90;;;;;;5044955;28;20411;-76
2023/08/26 09:26:40;;;;;;;1999.90;999.90;;;19.60;99.90;;;;;;5030255;28;20429;-76
2023/08/26 09:29:16;;;;;;;1999.90;999.90;;;19.60;99.90;;;;;;5029819;28;20451;-76
2023/08/26 09:31:49;;;;;;;1999.90;999.90;;;19.60;99.90;;;;;;5029254;28;20466;-76
2023/08/26 09:34:31;;;;;;;1999.90;999.90;;;19.80;99.90;;;;;;5024025;28;20912;-77
2023/08/26 09:36:57;;;;;;;1999.90;999.90;;;19.90;99.90;;;;;;5029957;28;20413;-76
2023/08/26 09:39:33;;;;;;;1999.90;999.90;;;19.90;99.90;;;;;;5030730;28;20453;-76
2023/08/26 09:42:00;;;;;;;1999.90;999.90;;;20.70;99.90;;;;;;5029762;28;20396;-77
2023/08/26 09:44:55;;;;;;;1999.90;999.90;;;20.00;99.90;;;;;;5029712;28;20412;-77
2023/08/26 09:47:26;;;;;;;1999.90;999.90;;;20.10;99.90;;;;;;5029641;28;20437;-76
2023/08/26 09:49:52;;;;;;;1999.90;999.90;;;20.20;99.90;;;;;;5030524;28;20439;-77
2023/08/26 09:52:17;;;;;;;1999.90;999.90;;;20.30;99.90;;;;;;5029328;28;20458;-77
2023/08/26 09:54:45;;;;;;;1999.90;999.90;;;20.40;99.90;;;;;;5033782;28;20230;-77
2023/08/26 09:57:11;;;;;;;1999.90;999.90;;;20.40;99.90;;;;;;5033640;28;20260;-78
2023/08/26 09:59:38;;;;;;;1999.90;999.90;;;20.50;99.90;;;;;;5031195;28;20460;-77
2023/08/26 10:02:16;;;;;;;1999.90;999.90;;;20.60;99.90;;;;;;5029274;28;20189;-75
2023/08/26 10:04:45;;;;;;;1999.90;999.90;;;20.80;99.90;;;;;;5029828;28;20821;-74
2023/08/26 10:07:11;;;;;;;1999.90;999.90;;;20.90;99.90;;;;;;5029410;28;20409;-74
2023/08/26 10:09:46;;;;;;;1999.90;999.90;;;21.00;99.90;;;;;;5029745;28;20434;-74
2023/08/26 10:12:20;;;;;;;1999.90;999.90;;;21.10;99.90;;;;;;5029444;28;20929;-74
2023/08/26 10:14:50;;;;;;;1999.90;999.90;;;21.00;99.90;;;;;;5044476;28;21026;-74
2023/08/26 10:17:19;;;;;;;1999.90;999.90;;;21.10;99.90;;;;;;5027924;28;20423;-75
2023/08/26 10:19:46;;;;;;;1999.90;999.90;;;21.20;99.90;;;;;;5036478;28;20445;-74
2023/08/26 10:22:13;;;;;;;1999.90;999.90;;;21.30;99.90;;;;;;5032022;28;20802;-75
2023/08/26 10:24:39;;;;;;;1999.90;999.90;;;21.40;99.90;;;;;;5040373;28;20460;-74
2023/08/26 10:27:08;;;;;;;1999.90;999.90;;;21.40;99.90;;;;;;5033249;28;20425;-74
2023/08/26 10:29:36;;;;;;;1999.90;999.90;;;21.40;99.90;;;;;;5036377;28;20446;-75
2023/08/26 10:32:19;;;;;;;1999.90;999.90;;;21.60;99.90;;;;;;5032285;28;20421;-75
2023/08/26 10:34:55;;;;;;;1999.90;999.90;;;21.80;99.90;;;;;;5033168;28;20827;-74
2023/08/26 10:37:31;;;;;;;1999.90;999.90;;;22.10;99.70;;;;;;5033176;28;21000;-75
2023/08/26 10:40:03;;;;;;;1999.90;999.90;;;22.30;99.20;;;;;;5033058;28;20441;-74
2023/08/26 10:42:29;;;;;;;1999.90;999.90;;;22.40;97.60;;;;;;5032464;28;20410;-75
2023/08/26 10:44:57;;;;;;;1999.90;999.90;;;22.30;98.50;;;;;;5032543;28;20890;-75
2023/08/26 10:47:51;;;;;;;1999.90;999.90;;;22.50;99.90;;;;;;5032994;28;20174;-74
2023/08/26 10:50:28;;;;;;;1999.90;999.90;;;22.70;99.90;;;;;;5030701;28;20944;-74
2023/08/26 10:53:19;;;;;;;1999.90;999.90;;;22.70;97.20;;;;;;5032176;28;20473;-75
2023/08/26 10:55:50;;;;;;;1999.90;999.90;;;22.70;97.10;;;;;;5032661;28;20395;-75
2023/08/26 10:58:20;;;;;;;1999.90;999.90;;;22.90;94.70;;;;;;5032251;28;20416;-74
2023/08/26 11:00:48;;;;;;;1999.90;999.90;;;22.80;94.70;;;;;;5032812;28;20470;-74
2023/08/26 11:03:16;;;;;;;1999.90;999.90;;;22.80;95.40;;;;;;5032133;28;20383;-74
2023/08/26 11:05:44;;;;;;;1999.90;999.90;;;22.70;93.60;;;;;;5032171;28;20907;-74
2023/08/26 11:08:10;;;;;;;1999.90;999.90;;;22.60;94.80;;;;;;5032457;28;20448;-74
2023/08/26 11:10:39;;;;;;;1999.90;999.90;;;22.80;99.50;;;;;;5032004;28;20444;-75
2023/08/26 11:13:05;;;;;;;1999.90;999.90;;;22.90;92.20;;;;;;5031427;28;20478;-74
2023/08/26 11:15:39;;;;;;;1999.90;999.90;;;23.10;92.50;;;;;;5032427;28;20431;-75
2023/08/26 11:18:05;;;;;;;1999.90;999.90;;;23.20;91.60;;;;;;5032348;28;20409;-75
2023/08/26 11:20:31;;;;;;;1999.90;999.90;;;23.10;89.70;;;;;;5031885;28;20442;-74
2023/08/26 11:22:58;;;;;;;1999.90;999.90;;;23.00;91.10;;;;;;5031295;28;20420;-74
2023/08/26 11:25:24;;;;;;;1999.90;999.90;;;23.20;90.10;;;;;;5032305;28;20410;-74
2023/08/26 11:27:51;;;;;;;1999.90;999.90;;;23.40;89.70;;;;;;5038944;28;20429;-75
2023/08/26 11:30:17;;;;;;;1999.90;999.90;;;23.30;90.90;;;;;;5031524;28;20596;-74
2023/08/26 11:32:42;;;;;;;1999.90;999.90;;;23.40;91.50;;;;;;5031269;28;20453;-75
2023/08/26 11:35:10;;;;;;;1999.90;999.90;;;23.40;87.50;;;;;;5031578;28;20173;-74
2023/08/26 11:37:39;;;;;;;1999.90;999.90;;;23.60;89.40;;;;;;5031990;28;20251;-75
2023/08/26 11:40:05;;;;;;;1999.90;999.90;;;23.70;89.10;;;;;;5031579;28;20426;-74
2023/08/26 11:42:31;;;;;;;1999.90;999.90;;;23.70;87.70;;;;;;5030752;28;20955;-75
2023/08/26 11:44:57;;;;;;;1999.90;999.90;;;23.90;86.80;;;;;;5031848;28;20411;-74
2023/08/26 11:47:26;;;;;;;1999.90;999.90;;;24.10;85.70;;;;;;5031391;28;20175;-73
2023/08/26 11:49:55;;;;;;;1999.90;999.90;;;24.10;79.80;;;;;;5030841;28;20245;-74
2023/08/26 11:52:33;;;;;;;1999.90;999.90;;;23.90;85.60;;;;;;5030869;28;20851;-74
2023/08/26 11:55:00;;;;;;;1999.90;999.90;;;23.70;83.70;;;;;;5031935;28;20922;-74
2023/08/26 11:57:26;;;;;;;1999.90;999.90;;;23.50;85.00;;;;;;5031285;28;20490;-74
2023/08/26 11:59:51;;;;;;;1999.90;999.90;;;23.40;81.10;;;;;;5031694;28;20536;-73